sensor_id;sensor_type;location;lat;lon;timestamp;temperature;humidity
11894;DHT22;6006;49.696;8.662;2022-09-03T00:01:05;19.40;99.90
11894;DHT22;6006;49.696;8.662;2022-09-03T00:03:39;19.40;99.90
11894;DHT22;6006;49.696;8.662;2022-09-03T00:06:11;19.30;99.90
11894;DHT22;6006;49.696;8.662;2022-09-03T00:08:43;19.40;99.90
11894;DHT22;6006;49.696;8.662;2022-09-03T00:11:15;19.40;99.90
11894;DHT22;6006;49.696;8.662;2022-09-03T00:13:49;19.40;99.90
11894;DHT22;6006;49.696;8.662;2022-09-03T00:16:19;19.40;99.90
11894;DHT22;6006;49.696;8.662;2022-09-03T00:18:51;19.40;99.90
11894;DHT22;6006;49.696;8.662;2022-09-03T00:21:29;19.40;99.90
11894;DHT22;6006;49.696;8.662;2022-09-03T00:23:59;19.50;99.90
11894;DHT22;6006;49.696;8.662;2022-09-03T00:26:29;19.50;99.90
11894;DHT22;6006;49.696;8.662;2022-09-03T00:29:02;19.50;99.90
11894;DHT22;6006;49.696;8.662;2022-09-03T00:31:33;19.50;99.90
11894;DHT22;6006;49.696;8.662;2022-09-03T00:34:06;19.50;99.90
11894;DHT22;6006;49.696;8.662;2022-09-03T00:36:38;19.50;99.90
11894;DHT22;6006;49.696;8.662;2022-09-03T00:39:09;19.50;99.90
11894;DHT22;6006;49.696;8.662;2022-09-03T00:41:39;19.40;99.90
11894;DHT22;6006;49.696;8.662;2022-09-03T00:44:40;19.40;99.90
11894;DHT22;6006;49.696;8.662;2022-09-03T00:47:12;19.40;99.90
11894;DHT22;6006;49.696;8.662;2022-09-03T00:49:53;19.30;99.90
11894;DHT22;6006;49.696;8.662;2022-09-03T00:52:37;19.30;99.90
11894;DHT22;6006;49.696;8.662;2022-09-03T00:55:15;19.30;99.90
11894;DHT22;6006;49.696;8.662;2022-09-03T00:57:57;19.30;99.90
11894;DHT22;6006;49.696;8.662;2022-09-03T01:00:30;19.20;99.90
11894;DHT22;6006;49.696;8.662;2022-09-03T01:03:04;19.10;99.90
11894;DHT22;6006;49.696;8.662;2022-09-03T01:05:42;19.10;99.90
11894;DHT22;6006;49.696;8.662;2022-09-03T01:08:24;19.00;99.90
11894;DHT22;6006;49.696;8.662;2022-09-03T01:11:02;19.00;99.90
11894;DHT22;6006;49.696;8.662;2022-09-03T01:13:38;19.00;99.90
11894;DHT22;6006;49.696;8.662;2022-09-03T01:16:16;19.00;99.90
11894;DHT22;6006;49.696;8.662;2022-09-03T01:18:50;19.10;99.90
11894;DHT22;6006;49.696;8.662;2022-09-03T01:21:45;19.10;99.90
11894;DHT22;6006;49.696;8.662;2022-09-03T01:24:32;19.10;99.90
11894;DHT22;6006;49.696;8.662;2022-09-03T01:27:20;19.10;99.90
11894;DHT22;6006;49.696;8.662;2022-09-03T01:29:59;19.10;99.90
11894;DHT22;6006;49.696;8.662;2022-09-03T01:32:36;19.00;99.90
11894;DHT22;6006;49.696;8.662;2022-09-03T01:35:11;18.90;99.90
11894;DHT22;6006;49.696;8.662;2022-09-03T01:37:50;18.90;99.90
11894;DHT22;6006;49.696;8.662;2022-09-03T01:40:28;18.90;99.90
11894;DHT22;6006;49.696;8.662;2022-09-03T01:43:08;18.90;99.90
11894;DHT22;6006;49.696;8.662;2022-09-03T01:45:47;18.80;99.90
11894;DHT22;6006;49.696;8.662;2022-09-03T01:48:33;18.80;99.90
11894;DHT22;6006;49.696;8.662;2022-09-03T01:51:08;18.70;99.90
11894;DHT22;6006;49.696;8.662;2022-09-03T01:56:42;18.60;99.90
11894;DHT22;6006;49.696;8.662;2022-09-03T01:59:16;18.60;99.90
11894;DHT22;6006;49.696;8.662;2022-09-03T02:01:52;18.60;99.90
11894;DHT22;6006;49.696;8.662;2022-09-03T02:04:23;18.60;99.90
11894;DHT22;6006;49.696;8.662;2022-09-03T02:06:52;18.60;99.90
11894;DHT22;6006;49.696;8.662;2022-09-03T02:09:19;18.50;99.90
11894;DHT22;6006;49.696;8.662;2022-09-03T02:11:51;18.50;99.90
11894;DHT22;6006;49.696;8.662;2022-09-03T02:14:23;18.50;99.90
11894;DHT22;6006;49.696;8.662;2022-09-03T02:16:52;18.60;99.90
11894;DHT22;6006;49.696;8.662;2022-09-03T02:19:19;18.50;99.90
11894;DHT22;6006;49.696;8.662;2022-09-03T02:21:49;18.60;99.90
11894;DHT22;6006;49.696;8.662;2022-09-03T02:24:17;18.60;99.90
11894;DHT22;6006;49.696;8.662;2022-09-03T02:26:44;18.50;99.90
11894;DHT22;6006;49.696;8.662;2022-09-03T02:29:12;18.50;99.90
11894;DHT22;6006;49.696;8.662;2022-09-03T02:31:40;18.50;1.00
11894;DHT22;6006;49.696;8.662;2022-09-03T02:34:08;18.50;99.90
11894;DHT22;6006;49.696;8.662;2022-09-03T02:36:37;18.40;1.00
11894;DHT22;6006;49.696;8.662;2022-09-03T02:39:05;18.40;1.00
11894;DHT22;6006;49.696;8.662;2022-09-03T02:41:32;18.40;1.00
11894;DHT22;6006;49.696;8.662;2022-09-03T02:44:03;18.40;99.90
11894;DHT22;6006;49.696;8.662;2022-09-03T02:46:35;18.40;1.00
11894;DHT22;6006;49.696;8.662;2022-09-03T02:49:04;18.40;1.00
11894;DHT22;6006;49.696;8.662;2022-09-03T02:51:33;18.40;1.00
11894;DHT22;6006;49.696;8.662;2022-09-03T02:54:01;18.40;1.00
11894;DHT22;6006;49.696;8.662;2022-09-03T02:56:28;18.40;1.00
11894;DHT22;6006;49.696;8.662;2022-09-03T02:58:55;18.30;1.00
11894;DHT22;6006;49.696;8.662;2022-09-03T03:01:22;18.30;1.00
11894;DHT22;6006;49.696;8.662;2022-09-03T03:03:49;18.30;1.00
11894;DHT22;6006;49.696;8.662;2022-09-03T03:06:16;18.30;1.00
11894;DHT22;6006;49.696;8.662;2022-09-03T03:08:47;18.30;1.00
11894;DHT22;6006;49.696;8.662;2022-09-03T03:11:14;18.30;1.00
11894;DHT22;6006;49.696;8.662;2022-09-03T03:13:43;18.30;1.00
11894;DHT22;6006;49.696;8.662;2022-09-03T03:16:11;18.30;1.00
11894;DHT22;6006;49.696;8.662;2022-09-03T03:18:38;18.20;1.00
11894;DHT22;6006;49.696;8.662;2022-09-03T03:21:06;18.20;1.00
11894;DHT22;6006;49.696;8.662;2022-09-03T03:23:34;18.20;1.00
11894;DHT22;6006;49.696;8.662;2022-09-03T03:26:03;18.10;1.00
11894;DHT22;6006;49.696;8.662;2022-09-03T03:28:30;18.10;1.00
11894;DHT22;6006;49.696;8.662;2022-09-03T03:31:03;18.10;1.00
11894;DHT22;6006;49.696;8.662;2022-09-03T03:33:30;18.10;1.00
11894;DHT22;6006;49.696;8.662;2022-09-03T03:35:57;18.10;1.00
11894;DHT22;6006;49.696;8.662;2022-09-03T03:38:24;18.00;1.00
11894;DHT22;6006;49.696;8.662;2022-09-03T03:40:51;18.00;1.00
11894;DHT22;6006;49.696;8.662;2022-09-03T03:43:19;18.00;1.00
11894;DHT22;6006;49.696;8.662;2022-09-03T03:45:55;18.00;1.00
11894;DHT22;6006;49.696;8.662;2022-09-03T03:48:22;17.90;1.00
11894;DHT22;6006;49.696;8.662;2022-09-03T03:50:49;17.90;1.00
11894;DHT22;6006;49.696;8.662;2022-09-03T03:53:16;17.90;1.00
11894;DHT22;6006;49.696;8.662;2022-09-03T03:55:43;17.90;1.00
11894;DHT22;6006;49.696;8.662;2022-09-03T03:58:20;17.90;1.00
11894;DHT22;6006;49.696;8.662;2022-09-03T04:00:47;17.90;1.00
11894;DHT22;6006;49.696;8.662;2022-09-03T04:03:16;17.90;1.00
11894;DHT22;6006;49.696;8.662;2022-09-03T04:05:43;17.80;1.00
11894;DHT22;6006;49.696;8.662;2022-09-03T04:08:09;17.80;1.00
11894;DHT22;6006;49.696;8.662;2022-09-03T04:10:37;17.80;1.00
11894;DHT22;6006;49.696;8.662;2022-09-03T04:13:04;17.80;1.00
11894;DHT22;6006;49.696;8.662;2022-09-03T04:15:32;17.70;1.00
11894;DHT22;6006;49.696;8.662;2022-09-03T04:17:59;17.70;1.00
11894;DHT22;6006;49.696;8.662;2022-09-03T04:20:26;17.70;1.00
11894;DHT22;6006;49.696;8.662;2022-09-03T04:22:53;17.70;32.80
11894;DHT22;6006;49.696;8.662;2022-09-03T04:25:20;17.70;1.00
11894;DHT22;6006;49.696;8.662;2022-09-03T04:27:47;17.70;1.00
11894;DHT22;6006;49.696;8.662;2022-09-03T04:30:14;17.70;1.00
11894;DHT22;6006;49.696;8.662;2022-09-03T04:32:42;17.70;1.00
11894;DHT22;6006;49.696;8.662;2022-09-03T04:35:22;17.70;1.00
11894;DHT22;6006;49.696;8.662;2022-09-03T04:37:49;17.70;1.00
11894;DHT22;6006;49.696;8.662;2022-09-03T04:40:16;17.80;1.00
11894;DHT22;6006;49.696;8.662;2022-09-03T04:42:43;17.80;1.00
11894;DHT22;6006;49.696;8.662;2022-09-03T04:45:10;17.80;1.00
11894;DHT22;6006;49.696;8.662;2022-09-03T04:47:44;17.90;1.00
11894;DHT22;6006;49.696;8.662;2022-09-03T04:50:12;17.90;1.00
11894;DHT22;6006;49.696;8.662;2022-09-03T04:52:39;17.90;1.00
11894;DHT22;6006;49.696;8.662;2022-09-03T04:55:07;17.90;1.00
11894;DHT22;6006;49.696;8.662;2022-09-03T04:57:35;17.90;1.00
11894;DHT22;6006;49.696;8.662;2022-09-03T05:00:03;17.90;1.00
11894;DHT22;6006;49.696;8.662;2022-09-03T05:02:32;17.90;48.20
11894;DHT22;6006;49.696;8.662;2022-09-03T05:05:00;17.90;99.90
11894;DHT22;6006;49.696;8.662;2022-09-03T05:07:27;17.90;57.10
11894;DHT22;6006;49.696;8.662;2022-09-03T05:10:04;17.90;99.90
11894;DHT22;6006;49.696;8.662;2022-09-03T05:12:31;17.90;99.90
11894;DHT22;6006;49.696;8.662;2022-09-03T05:14:58;17.90;79.60
11894;DHT22;6006;49.696;8.662;2022-09-03T05:17:26;17.90;71.80
11894;DHT22;6006;49.696;8.662;2022-09-03T05:19:53;17.90;1.00
11894;DHT22;6006;49.696;8.662;2022-09-03T05:22:21;17.90;1.00
11894;DHT22;6006;49.696;8.662;2022-09-03T05:24:48;18.00;99.90
11894;DHT22;6006;49.696;8.662;2022-09-03T05:27:15;18.00;1.00
11894;DHT22;6006;49.696;8.662;2022-09-03T05:29:42;17.90;1.00
11894;DHT22;6006;49.696;8.662;2022-09-03T05:32:10;17.80;1.00
11894;DHT22;6006;49.696;8.662;2022-09-03T05:34:37;17.80;1.00
11894;DHT22;6006;49.696;8.662;2022-09-03T05:37:04;17.70;1.00
11894;DHT22;6006;49.696;8.662;2022-09-03T05:39:32;17.70;99.90
11894;DHT22;6006;49.696;8.662;2022-09-03T05:41:59;17.80;99.90
11894;DHT22;6006;49.696;8.662;2022-09-03T05:44:26;17.70;1.00
11894;DHT22;6006;49.696;8.662;2022-09-03T05:46:53;17.70;99.90
11894;DHT22;6006;49.696;8.662;2022-09-03T05:49:20;17.40;1.00
11894;DHT22;6006;49.696;8.662;2022-09-03T05:51:47;17.30;99.90
11894;DHT22;6006;49.696;8.662;2022-09-03T05:54:13;17.20;99.90
11894;DHT22;6006;49.696;8.662;2022-09-03T05:56:42;17.10;1.00
11894;DHT22;6006;49.696;8.662;2022-09-03T05:59:09;17.00;1.00
11894;DHT22;6006;49.696;8.662;2022-09-03T06:01:39;16.90;1.00
11894;DHT22;6006;49.696;8.662;2022-09-03T06:04:08;16.80;1.00
11894;DHT22;6006;49.696;8.662;2022-09-03T06:06:37;16.70;1.00
11894;DHT22;6006;49.696;8.662;2022-09-03T06:09:06;16.60;1.00
11894;DHT22;6006;49.696;8.662;2022-09-03T06:11:34;16.50;19.70
11894;DHT22;6006;49.696;8.662;2022-09-03T06:14:04;16.40;88.20
11894;DHT22;6006;49.696;8.662;2022-09-03T06:16:33;16.40;99.90
11894;DHT22;6006;49.696;8.662;2022-09-03T06:19:01;16.40;99.90
11894;DHT22;6006;49.696;8.662;2022-09-03T06:21:28;16.70;99.90
11894;DHT22;6006;49.696;8.662;2022-09-03T06:23:57;16.90;95.20
11894;DHT22;6006;49.696;8.662;2022-09-03T06:26:25;16.60;99.90
11894;DHT22;6006;49.696;8.662;2022-09-03T06:28:52;16.60;99.90
11894;DHT22;6006;49.696;8.662;2022-09-03T06:31:22;16.60;99.90
11894;DHT22;6006;49.696;8.662;2022-09-03T06:33:49;16.70;99.90
11894;DHT22;6006;49.696;8.662;2022-09-03T06:36:18;16.80;99.90
11894;DHT22;6006;49.696;8.662;2022-09-03T06:38:46;16.80;99.90
11894;DHT22;6006;49.696;8.662;2022-09-03T06:41:14;16.80;99.90
11894;DHT22;6006;49.696;8.662;2022-09-03T06:43:46;16.80;99.90
11894;DHT22;6006;49.696;8.662;2022-09-03T06:46:15;16.90;99.90
11894;DHT22;6006;49.696;8.662;2022-09-03T06:48:43;17.00;99.90
11894;DHT22;6006;49.696;8.662;2022-09-03T06:51:12;17.20;99.90
11894;DHT22;6006;49.696;8.662;2022-09-03T06:53:41;17.40;96.50
11894;DHT22;6006;49.696;8.662;2022-09-03T06:56:09;17.50;1.00
11894;DHT22;6006;49.696;8.662;2022-09-03T06:58:38;17.50;41.60
11894;DHT22;6006;49.696;8.662;2022-09-03T07:01:09;17.70;48.40
11894;DHT22;6006;49.696;8.662;2022-09-03T07:03:38;17.70;1.00
11894;DHT22;6006;49.696;8.662;2022-09-03T07:06:09;17.90;1.00
11894;DHT22;6006;49.696;8.662;2022-09-03T07:08:36;18.00;1.00
11894;DHT22;6006;49.696;8.662;2022-09-03T07:11:05;18.20;1.00
11894;DHT22;6006;49.696;8.662;2022-09-03T07:13:33;18.20;1.00
11894;DHT22;6006;49.696;8.662;2022-09-03T07:16:01;18.00;1.00
11894;DHT22;6006;49.696;8.662;2022-09-03T07:18:29;17.90;1.00
11894;DHT22;6006;49.696;8.662;2022-09-03T07:21:00;17.70;1.00
11894;DHT22;6006;49.696;8.662;2022-09-03T07:23:29;17.60;1.00
11894;DHT22;6006;49.696;8.662;2022-09-03T07:25:58;17.60;1.00
11894;DHT22;6006;49.696;8.662;2022-09-03T07:28:26;17.50;1.00
11894;DHT22;6006;49.696;8.662;2022-09-03T07:30:54;17.40;1.00
11894;DHT22;6006;49.696;8.662;2022-09-03T07:33:27;17.50;16.50
11894;DHT22;6006;49.696;8.662;2022-09-03T07:36:00;17.50;52.60
11894;DHT22;6006;49.696;8.662;2022-09-03T07:38:29;17.50;98.00
11894;DHT22;6006;49.696;8.662;2022-09-03T07:40:59;17.40;97.00
11894;DHT22;6006;49.696;8.662;2022-09-03T07:43:27;17.40;99.90
11894;DHT22;6006;49.696;8.662;2022-09-03T07:45:55;17.50;99.90
11894;DHT22;6006;49.696;8.662;2022-09-03T07:48:22;17.50;99.90
11894;DHT22;6006;49.696;8.662;2022-09-03T07:50:50;17.50;99.90
11894;DHT22;6006;49.696;8.662;2022-09-03T07:53:17;17.50;99.90
11894;DHT22;6006;49.696;8.662;2022-09-03T07:55:46;17.60;99.90
11894;DHT22;6006;49.696;8.662;2022-09-03T07:58:13;17.60;99.90
11894;DHT22;6006;49.696;8.662;2022-09-03T08:00:40;17.60;99.90
11894;DHT22;6006;49.696;8.662;2022-09-03T08:03:07;17.60;99.90
11894;DHT22;6006;49.696;8.662;2022-09-03T08:05:36;17.50;99.90
11894;DHT22;6006;49.696;8.662;2022-09-03T08:08:03;17.50;99.90
11894;DHT22;6006;49.696;8.662;2022-09-03T08:10:32;17.60;99.90
11894;DHT22;6006;49.696;8.662;2022-09-03T08:13:01;17.70;99.90
11894;DHT22;6006;49.696;8.662;2022-09-03T08:15:30;17.80;1.00
11894;DHT22;6006;49.696;8.662;2022-09-03T08:18:00;17.90;1.00
11894;DHT22;6006;49.696;8.662;2022-09-03T08:20:27;18.20;1.00
11894;DHT22;6006;49.696;8.662;2022-09-03T08:23:00;18.30;1.00
11894;DHT22;6006;49.696;8.662;2022-09-03T08:25:27;18.70;1.00
11894;DHT22;6006;49.696;8.662;2022-09-03T08:27:57;18.80;1.00
11894;DHT22;6006;49.696;8.662;2022-09-03T08:30:26;18.90;1.00
11894;DHT22;6006;49.696;8.662;2022-09-03T08:32:53;18.80;1.00
11894;DHT22;6006;49.696;8.662;2022-09-03T08:35:21;18.70;1.00
11894;DHT22;6006;49.696;8.662;2022-09-03T08:37:48;18.80;1.00
11894;DHT22;6006;49.696;8.662;2022-09-03T08:40:19;18.60;14.30
11894;DHT22;6006;49.696;8.662;2022-09-03T08:42:58;18.60;1.00
11894;DHT22;6006;49.696;8.662;2022-09-03T08:45:33;18.80;1.00
11894;DHT22;6006;49.696;8.662;2022-09-03T08:48:04;19.10;1.00
11894;DHT22;6006;49.696;8.662;2022-09-03T08:50:37;19.30;1.00
11894;DHT22;6006;49.696;8.662;2022-09-03T08:53:11;19.20;1.00
11894;DHT22;6006;49.696;8.662;2022-09-03T08:55:45;19.30;1.00
11894;DHT22;6006;49.696;8.662;2022-09-03T08:58:14;19.20;1.00
11894;DHT22;6006;49.696;8.662;2022-09-03T09:00:50;19.00;12.00
11894;DHT22;6006;49.696;8.662;2022-09-03T09:03:41;18.80;1.00
11894;DHT22;6006;49.696;8.662;2022-09-03T09:06:17;18.70;1.00
11894;DHT22;6006;49.696;8.662;2022-09-03T09:08:58;18.70;1.00
11894;DHT22;6006;49.696;8.662;2022-09-03T09:11:36;18.50;1.00
11894;DHT22;6006;49.696;8.662;2022-09-03T09:14:11;18.50;1.00
11894;DHT22;6006;49.696;8.662;2022-09-03T09:16:46;18.50;1.00
11894;DHT22;6006;49.696;8.662;2022-09-03T09:19:25;18.60;1.00
11894;DHT22;6006;49.696;8.662;2022-09-03T09:22:01;18.50;4.20
11894;DHT22;6006;49.696;8.662;2022-09-03T09:24:39;18.60;1.00
11894;DHT22;6006;49.696;8.662;2022-09-03T09:27:07;18.50;1.00
11894;DHT22;6006;49.696;8.662;2022-09-03T09:29:36;18.50;9.40
11894;DHT22;6006;49.696;8.662;2022-09-03T09:32:08;18.20;99.90
11894;DHT22;6006;49.696;8.662;2022-09-03T09:34:37;18.00;99.90
11894;DHT22;6006;49.696;8.662;2022-09-03T09:37:09;18.00;99.90
11894;DHT22;6006;49.696;8.662;2022-09-03T09:39:38;18.10;99.90
11894;DHT22;6006;49.696;8.662;2022-09-03T09:42:06;18.30;99.90
11894;DHT22;6006;49.696;8.662;2022-09-03T09:44:35;18.70;73.70
11894;DHT22;6006;49.696;8.662;2022-09-03T09:47:06;18.90;1.00
11894;DHT22;6006;49.696;8.662;2022-09-03T09:49:35;19.10;1.00
11894;DHT22;6006;49.696;8.662;2022-09-03T09:52:08;19.10;1.00
11894;DHT22;6006;49.696;8.662;2022-09-03T09:54:37;19.00;1.00
11894;DHT22;6006;49.696;8.662;2022-09-03T09:57:05;18.90;1.00
11894;DHT22;6006;49.696;8.662;2022-09-03T09:59:33;19.00;1.00
11894;DHT22;6006;49.696;8.662;2022-09-03T10:02:23;18.80;1.00
11894;DHT22;6006;49.696;8.662;2022-09-03T10:04:52;18.90;1.00
11894;DHT22;6006;49.696;8.662;2022-09-03T10:07:24;18.70;1.00
11894;DHT22;6006;49.696;8.662;2022-09-03T10:10:03;18.50;1.00
11894;DHT22;6006;49.696;8.662;2022-09-03T10:12:34;18.60;1.00
11894;DHT22;6006;49.696;8.662;2022-09-03T10:15:10;18.80;1.00
11894;DHT22;6006;49.696;8.662;2022-09-03T10:17:46;19.10;1.00
11894;DHT22;6006;49.696;8.662;2022-09-03T10:20:20;20.20;1.00
11894;DHT22;6006;49.696;8.662;2022-09-03T10:22:59;21.70;99.90
11894;DHT22;6006;49.696;8.662;2022-09-03T10:25:33;21.50;1.00
11894;DHT22;6006;49.696;8.662;2022-09-03T10:28:04;21.80;99.90
11894;DHT22;6006;49.696;8.662;2022-09-03T10:30:56;22.20;9.40
11894;DHT22;6006;49.696;8.662;2022-09-03T10:33:31;23.90;17.90
11894;DHT22;6006;49.696;8.662;2022-09-03T10:36:07;24.90;99.90
11894;DHT22;6006;49.696;8.662;2022-09-03T10:38:38;25.60;99.90
11894;DHT22;6006;49.696;8.662;2022-09-03T10:41:18;26.00;1.00
11894;DHT22;6006;49.696;8.662;2022-09-03T10:43:59;26.40;1.00
11894;DHT22;6006;49.696;8.662;2022-09-03T10:46:34;24.60;49.80
11894;DHT22;6006;49.696;8.662;2022-09-03T10:52:05;26.10;1.00
11894;DHT22;6006;49.696;8.662;2022-09-03T10:54:51;26.40;1.00
11894;DHT22;6006;49.696;8.662;2022-09-03T10:57:28;25.90;1.00
11894;DHT22;6006;49.696;8.662;2022-09-03T11:00:03;25.30;1.00
11894;DHT22;6006;49.696;8.662;2022-09-03T11:05:37;25.20;1.00
11894;DHT22;6006;49.696;8.662;2022-09-03T11:08:10;25.50;1.00
11894;DHT22;6006;49.696;8.662;2022-09-03T11:10:40;26.10;28.20
11894;DHT22;6006;49.696;8.662;2022-09-03T11:13:11;27.20;1.00
11894;DHT22;6006;49.696;8.662;2022-09-03T11:15:45;27.20;1.00
11894;DHT22;6006;49.696;8.662;2022-09-03T11:18:19;26.60;1.00
11894;DHT22;6006;49.696;8.662;2022-09-03T11:20:52;26.80;1.00
11894;DHT22;6006;49.696;8.662;2022-09-03T11:23:23;28.50;1.00
11894;DHT22;6006;49.696;8.662;2022-09-03T11:25:55;28.40;99.90
11894;DHT22;6006;49.696;8.662;2022-09-03T11:28:32;26.30;1.00
11894;DHT22;6006;49.696;8.662;2022-09-03T11:31:20;24.90;1.00
11894;DHT22;6006;49.696;8.662;2022-09-03T11:33:52;24.30;99.90
11894;DHT22;6006;49.696;8.662;2022-09-03T11:36:28;23.80;99.90
11894;DHT22;6006;49.696;8.662;2022-09-03T11:38:56;24.20;1.00
11894;DHT22;6006;49.696;8.662;2022-09-03T11:41:25;24.00;1.00
11894;DHT22;6006;49.696;8.662;2022-09-03T11:43:53;24.00;99.90
11894;DHT22;6006;49.696;8.662;2022-09-03T11:46:29;25.20;99.90
11894;DHT22;6006;49.696;8.662;2022-09-03T11:49:09;25.70;1.00
11894;DHT22;6006;49.696;8.662;2022-09-03T11:51:39;27.10;1.00
11894;DHT22;6006;49.696;8.662;2022-09-03T11:54:23;27.60;1.00
11894;DHT22;6006;49.696;8.662;2022-09-03T11:57:02;28.10;1.00
11894;DHT22;6006;49.696;8.662;2022-09-03T11:59:29;27.60;1.00
11894;DHT22;6006;49.696;8.662;2022-09-03T12:01:59;27.50;1.00
11894;DHT22;6006;49.696;8.662;2022-09-03T12:04:33;25.80;1.00
11894;DHT22;6006;49.696;8.662;2022-09-03T12:07:20;25.40;1.00
11894;DHT22;6006;49.696;8.662;2022-09-03T12:10:10;24.90;57.60
11894;DHT22;6006;49.696;8.662;2022-09-03T12:12:52;25.30;1.00
11894;DHT22;6006;49.696;8.662;2022-09-03T12:15:34;25.00;28.50
11894;DHT22;6006;49.696;8.662;2022-09-03T12:18:04;24.30;20.00
11894;DHT22;6006;49.696;8.662;2022-09-03T12:20:46;24.60;1.00
11894;DHT22;6006;49.696;8.662;2022-09-03T12:23:25;25.40;1.00
11894;DHT22;6006;49.696;8.662;2022-09-03T12:25:53;26.80;1.00
11894;DHT22;6006;49.696;8.662;2022-09-03T12:28:22;28.20;1.00
11894;DHT22;6006;49.696;8.662;2022-09-03T12:30:49;27.70;1.00
11894;DHT22;6006;49.696;8.662;2022-09-03T12:33:18;27.10;1.00
11894;DHT22;6006;49.696;8.662;2022-09-03T12:35:55;26.60;1.00
11894;DHT22;6006;49.696;8.662;2022-09-03T12:38:24;26.20;1.00
11894;DHT22;6006;49.696;8.662;2022-09-03T12:40:52;26.10;1.00
11894;DHT22;6006;49.696;8.662;2022-09-03T12:43:19;26.30;1.00
11894;DHT22;6006;49.696;8.662;2022-09-03T12:45:48;25.70;1.00
11894;DHT22;6006;49.696;8.662;2022-09-03T12:48:17;25.20;1.00
11894;DHT22;6006;49.696;8.662;2022-09-03T12:50:45;24.50;1.00
11894;DHT22;6006;49.696;8.662;2022-09-03T12:53:14;24.30;1.00
11894;DHT22;6006;49.696;8.662;2022-09-03T12:55:48;23.90;1.00
11894;DHT22;6006;49.696;8.662;2022-09-03T12:58:18;24.20;1.00
11894;DHT22;6006;49.696;8.662;2022-09-03T13:00:51;24.00;99.90
11894;DHT22;6006;49.696;8.662;2022-09-03T13:03:24;24.20;1.00
11894;DHT22;6006;49.696;8.662;2022-09-03T13:05:54;24.50;1.00
11894;DHT22;6006;49.696;8.662;2022-09-03T13:08:25;24.60;1.00
11894;DHT22;6006;49.696;8.662;2022-09-03T13:10:56;24.40;99.90
11894;DHT22;6006;49.696;8.662;2022-09-03T13:13:25;24.90;1.00
11894;DHT22;6006;49.696;8.662;2022-09-03T13:16:42;24.90;1.00
11894;DHT22;6006;49.696;8.662;2022-09-03T13:19:15;24.80;1.00
11894;DHT22;6006;49.696;8.662;2022-09-03T13:21:49;26.10;1.00
11894;DHT22;6006;49.696;8.662;2022-09-03T13:24:27;26.60;1.00
11894;DHT22;6006;49.696;8.662;2022-09-03T13:27:08;26.70;1.00
11894;DHT22;6006;49.696;8.662;2022-09-03T13:29:56;26.30;1.00
11894;DHT22;6006;49.696;8.662;2022-09-03T13:32:35;26.00;1.00
11894;DHT22;6006;49.696;8.662;2022-09-03T13:35:08;25.50;1.00
11894;DHT22;6006;49.696;8.662;2022-09-03T13:37:41;24.80;1.00
11894;DHT22;6006;49.696;8.662;2022-09-03T13:40:14;24.90;1.00
11894;DHT22;6006;49.696;8.662;2022-09-03T13:42:49;24.70;1.00
11894;DHT22;6006;49.696;8.662;2022-09-03T13:45:27;24.50;1.00
11894;DHT22;6006;49.696;8.662;2022-09-03T13:47:58;24.60;1.00
11894;DHT22;6006;49.696;8.662;2022-09-03T13:50:48;24.60;1.00
11894;DHT22;6006;49.696;8.662;2022-09-03T13:53:26;24.50;1.00
11894;DHT22;6006;49.696;8.662;2022-09-03T13:55:59;24.80;1.00
11894;DHT22;6006;49.696;8.662;2022-09-03T13:58:34;25.10;1.00
11894;DHT22;6006;49.696;8.662;2022-09-03T14:01:12;25.20;1.00
11894;DHT22;6006;49.696;8.662;2022-09-03T14:03:45;25.00;1.00
11894;DHT22;6006;49.696;8.662;2022-09-03T14:06:19;25.10;1.00
11894;DHT22;6006;49.696;8.662;2022-09-03T14:08:58;25.50;1.00
11894;DHT22;6006;49.696;8.662;2022-09-03T14:11:31;26.00;1.00
11894;DHT22;6006;49.696;8.662;2022-09-03T14:14:11;26.70;1.00
11894;DHT22;6006;49.696;8.662;2022-09-03T14:16:45;26.10;1.00
11894;DHT22;6006;49.696;8.662;2022-09-03T14:19:18;27.00;1.00
11894;DHT22;6006;49.696;8.662;2022-09-03T14:21:51;27.70;99.90
11894;DHT22;6006;49.696;8.662;2022-09-03T14:24:23;28.40;99.90
11894;DHT22;6006;49.696;8.662;2022-09-03T14:26:55;28.80;99.90
11894;DHT22;6006;49.696;8.662;2022-09-03T14:29:27;28.80;99.90
11894;DHT22;6006;49.696;8.662;2022-09-03T14:32:14;28.60;99.90
11894;DHT22;6006;49.696;8.662;2022-09-03T14:35:13;27.60;99.90
11894;DHT22;6006;49.696;8.662;2022-09-03T14:40:57;27.10;1.00
11894;DHT22;6006;49.696;8.662;2022-09-03T14:43:45;26.90;99.90
11894;DHT22;6006;49.696;8.662;2022-09-03T14:46:22;26.90;99.90
11894;DHT22;6006;49.696;8.662;2022-09-03T14:49:11;26.30;99.90
11894;DHT22;6006;49.696;8.662;2022-09-03T14:51:55;25.60;1.00
11894;DHT22;6006;49.696;8.662;2022-09-03T14:54:49;25.50;1.00
11894;DHT22;6006;49.696;8.662;2022-09-03T14:57:38;25.30;1.00
11894;DHT22;6006;49.696;8.662;2022-09-03T15:00:13;25.20;1.00
11894;DHT22;6006;49.696;8.662;2022-09-03T15:03:17;25.20;1.00
11894;DHT22;6006;49.696;8.662;2022-09-03T15:06:06;24.80;1.00
11894;DHT22;6006;49.696;8.662;2022-09-03T15:08:46;25.40;1.00
11894;DHT22;6006;49.696;8.662;2022-09-03T15:11:16;25.90;1.00
11894;DHT22;6006;49.696;8.662;2022-09-03T15:13:49;25.80;1.00
11894;DHT22;6006;49.696;8.662;2022-09-03T15:16:30;26.00;1.00
11894;DHT22;6006;49.696;8.662;2022-09-03T15:19:12;25.40;1.00
11894;DHT22;6006;49.696;8.662;2022-09-03T15:22:03;24.60;1.00
11894;DHT22;6006;49.696;8.662;2022-09-03T15:24:44;24.20;1.00
11894;DHT22;6006;49.696;8.662;2022-09-03T15:27:22;24.20;99.90
11894;DHT22;6006;49.696;8.662;2022-09-03T15:30:05;24.30;99.90
11894;DHT22;6006;49.696;8.662;2022-09-03T15:32:47;23.50;99.90
11894;DHT22;6006;49.696;8.662;2022-09-03T15:35:35;23.40;1.00
11894;DHT22;6006;49.696;8.662;2022-09-03T15:38:07;23.60;1.00
11894;DHT22;6006;49.696;8.662;2022-09-03T15:40:41;23.20;1.00
11894;DHT22;6006;49.696;8.662;2022-09-03T15:43:17;23.10;1.00
11894;DHT22;6006;49.696;8.662;2022-09-03T15:45:50;23.10;1.00
11894;DHT22;6006;49.696;8.662;2022-09-03T15:48:29;22.90;99.90
11894;DHT22;6006;49.696;8.662;2022-09-03T15:51:07;22.80;1.00
11894;DHT22;6006;49.696;8.662;2022-09-03T15:53:40;23.00;99.90
11894;DHT22;6006;49.696;8.662;2022-09-03T15:56:17;23.10;1.00
11894;DHT22;6006;49.696;8.662;2022-09-03T15:58:51;22.80;99.90
11894;DHT22;6006;49.696;8.662;2022-09-03T16:01:26;22.80;1.00
11894;DHT22;6006;49.696;8.662;2022-09-03T16:04:02;22.80;99.90
11894;DHT22;6006;49.696;8.662;2022-09-03T16:06:52;22.80;1.00
11894;DHT22;6006;49.696;8.662;2022-09-03T16:09:35;22.90;1.00
11894;DHT22;6006;49.696;8.662;2022-09-03T16:12:13;22.90;1.00
11894;DHT22;6006;49.696;8.662;2022-09-03T16:14:46;22.90;1.00
11894;DHT22;6006;49.696;8.662;2022-09-03T16:17:24;23.00;1.00
11894;DHT22;6006;49.696;8.662;2022-09-03T16:19:57;23.00;1.00
11894;DHT22;6006;49.696;8.662;2022-09-03T16:22:29;23.00;41.70
11894;DHT22;6006;49.696;8.662;2022-09-03T16:25:00;22.90;99.90
11894;DHT22;6006;49.696;8.662;2022-09-03T16:27:32;22.70;99.90
11894;DHT22;6006;49.696;8.662;2022-09-03T16:30:06;22.50;99.90
11894;DHT22;6006;49.696;8.662;2022-09-03T16:32:44;22.60;1.00
11894;DHT22;6006;49.696;8.662;2022-09-03T16:35:23;22.60;1.00
11894;DHT22;6006;49.696;8.662;2022-09-03T16:38:08;22.60;99.90
11894;DHT22;6006;49.696;8.662;2022-09-03T16:40:41;22.50;1.00
11894;DHT22;6006;49.696;8.662;2022-09-03T16:43:23;22.60;99.90